Time;durP1;ratioP1;P1;durP2;ratioP2;P2;SDS_P1;SDS_P2;PMS_P1;PMS_P2;Temp;Humidity;BMP_temperature;BMP_pressure;BME280_temperature;BME280_humidity;BME280_pressure;Samples;Min_cycle;Max_cycle;Signal;HPM_P1;HPM_P2
2023/01/12 00:02:02;;;;;;;;;1.00;1.00;;;;;;;;5061543;28;61893;-87
2023/01/12 00:04:29;;;;;;;;;2.50;1.00;;;;;;;;5062970;28;61878;-87
2023/01/12 00:06:55;;;;;;;;;2.00;1.00;;;;;;;;5062233;28;61738;-87
2023/01/12 00:09:21;;;;;;;;;4.75;1.25;;;;;;;;5062642;28;62529;-86
2023/01/12 00:11:46;;;;;;;;;3.50;2.75;;;;;;;;5062701;28;61835;-86
2023/01/12 00:14:11;;;;;;;;;2.75;1.75;;;;;;;;5062139;28;61700;-87
2023/01/12 00:16:37;;;;;;;;;3.00;0.50;;;;;;;;5063152;28;61859;-87
2023/01/12 00:19:08;;;;;;;;;3.25;1.50;;;;;;;;5060195;28;63638;-87
2023/01/12 00:21:38;;;;;;;;;0.00;0.00;;;;;;;;5061430;28;62000;-87
2023/01/12 00:24:05;;;;;;;;;6.50;6.00;;;;;;;;5063389;28;61737;-87
2023/01/12 00:26:31;;;;;;;;;6.50;2.00;;;;;;;;5062145;28;62264;-88
2023/01/12 00:28:56;;;;;;;;;7.00;1.00;;;;;;;;5062066;28;62700;-86
2023/01/12 00:31:21;;;;;;;;;1.00;0.50;;;;;;;;5061597;28;61768;-87
2023/01/12 00:33:46;;;;;;;;;8.50;1.50;;;;;;;;5062522;28;61766;-87
2023/01/12 00:36:12;;;;;;;;;1.00;1.00;;;;;;;;5063196;28;61840;-87
2023/01/12 00:38:38;;;;;;;;;3.00;0.75;;;;;;;;5062418;28;63043;-87
2023/01/12 00:41:04;;;;;;;;;2.00;0.50;;;;;;;;5064515;28;61958;-87
2023/01/12 00:46:13;;;;;;;;;3.25;1.25;;;;;;;;5083043;28;61738;-86
2023/01/12 00:48:38;;;;;;;;;3.50;2.00;;;;;;;;5081446;28;62891;-87
2023/01/12 00:51:04;;;;;;;;;1.25;1.00;;;;;;;;5082866;28;61830;-88
2023/01/12 00:53:30;;;;;;;;;3.00;2.00;;;;;;;;5064439;28;61788;-88
2023/01/12 00:56:04;;;;;;;;;1.25;1.25;;;;;;;;5066004;28;61917;-87
2023/01/12 00:58:29;;;;;;;;;4.00;1.50;;;;;;;;5082302;28;63102;-87
2023/01/12 01:01:02;;;;;;;;;3.00;1.50;;;;;;;;5063812;28;62001;-87
2023/01/12 01:03:28;;;;;;;;;2.25;2.25;;;;;;;;5082706;28;62124;-87
2023/01/12 01:05:59;;;;;;;;;2.50;0.00;;;;;;;;5064331;28;61910;-87
2023/01/12 01:08:25;;;;;;;;;2.00;2.00;;;;;;;;5064023;28;64056;-86
2023/01/12 01:10:59;;;;;;;;;1.00;1.00;;;;;;;;5082381;28;61758;-87
2023/01/12 01:13:24;;;;;;;;;3.25;1.00;;;;;;;;5083014;28;61838;-86
2023/01/12 01:15:49;;;;;;;;;0.00;0.00;;;;;;;;5064171;28;61835;-87
2023/01/12 01:18:15;;;;;;;;;2.25;2.25;;;;;;;;5063467;28;63861;-88
2023/01/12 01:20:44;;;;;;;;;3.50;1.75;;;;;;;;5082253;28;61874;-87
2023/01/12 01:23:10;;;;;;;;;4.00;1.00;;;;;;;;5082913;28;61948;-87
2023/01/12 01:25:35;;;;;;;;;1.00;1.00;;;;;;;;5082902;28;61876;-88
2023/01/12 01:28:00;;;;;;;;;1.50;0.00;;;;;;;;5063597;28;64486;-88
2023/01/12 01:30:25;;;;;;;;;3.50;1.00;;;;;;;;5063714;28;61782;-87
2023/01/12 01:32:51;;;;;;;;;3.75;2.00;;;;;;;;5082325;28;61756;-87
2023/01/12 01:35:16;;;;;;;;;3.00;1.25;;;;;;;;5064512;28;62070;-88
2023/01/12 01:37:41;;;;;;;;;1.25;1.00;;;;;;;;5063620;28;64874;-87
2023/01/12 01:40:09;;;;;;;;;2.75;1.00;;;;;;;;5063318;28;61923;-87
2023/01/12 01:42:35;;;;;;;;;5.50;3.00;;;;;;;;5064197;28;62085;-87
2023/01/12 01:45:01;;;;;;;;;1.50;0.00;;;;;;;;5063669;28;61924;-86
2023/01/12 01:47:29;;;;;;;;;0.75;0.75;;;;;;;;5063215;28;65052;-87
2023/01/12 01:49:56;;;;;;;;;1.25;1.00;;;;;;;;5081545;28;61949;-87
2023/01/12 01:52:30;;;;;;;;;1.00;0.00;;;;;;;;5064157;28;62044;-87
2023/01/12 01:54:59;;;;;;;;;2.00;0.50;;;;;;;;5082062;28;62024;-88
2023/01/12 01:57:28;;;;;;;;;5.25;1.00;;;;;;;;5081802;28;62038;-87
2023/01/12 01:59:55;;;;;;;;;1.50;1.50;;;;;;;;5063430;28;62006;-87
2023/01/12 02:02:21;;;;;;;;;3.00;0.75;;;;;;;;5063555;28;61899;-88
2023/01/12 02:04:47;;;;;;;;;2.25;0.00;;;;;;;;5063955;28;62237;-88
2023/01/12 02:07:12;;;;;;;;;2.25;0.25;;;;;;;;5081600;28;61885;-87
2023/01/12 02:09:38;;;;;;;;;1.25;1.25;;;;;;;;5053481;28;62029;-87
2023/01/12 02:17:33;;;;;;;;;1.50;1.00;;;;;;;;5064080;28;61998;-87
2023/01/12 02:20:17;;;;;;;;;6.75;2.00;;;;;;;;5064321;28;62136;-87
2023/01/12 02:23:01;;;;;;;;;3.00;1.00;;;;;;;;5065337;28;61944;-87
2023/01/12 02:25:45;;;;;;;;;2.00;2.00;;;;;;;;5065294;28;61748;-86
2023/01/12 02:28:21;;;;;;;;;4.00;1.25;;;;;;;;5063807;28;62045;-87
2023/01/12 02:31:05;;;;;;;;;0.00;0.00;;;;;;;;5064760;28;61879;-87
2023/01/12 02:33:34;;;;;;;;;1.00;1.00;;;;;;;;5064777;28;62049;-87
2023/01/12 02:36:11;;;;;;;;;2.50;1.00;;;;;;;;5046834;28;61826;-87
2023/01/12 02:38:41;;;;;;;;;0.50;0.50;;;;;;;;5046234;28;65045;-87
2023/01/12 02:41:18;;;;;;;;;3.50;0.25;;;;;;;;5045986;28;61884;-87
2023/01/12 02:43:44;;;;;;;;;1.75;0.00;;;;;;;;5046311;28;61993;-87
2023/01/12 02:46:39;;;;;;;;;3.25;1.00;;;;;;;;5064629;28;62076;-86
2023/01/12 02:49:08;;;;;;;;;1.75;1.50;;;;;;;;5032023;28;64663;-87
2023/01/12 02:51:55;;;;;;;;;3.50;0.50;;;;;;;;5064444;28;62065;-87
2023/01/12 02:54:22;;;;;;;;;1.00;1.00;;;;;;;;5064427;28;61908;-87
2023/01/12 02:56:47;;;;;;;;;1.75;1.00;;;;;;;;5046741;28;62406;-87
2023/01/12 02:59:15;;;;;;;;;3.00;1.25;;;;;;;;5045026;28;63489;-88
2023/01/12 03:01:41;;;;;;;;;2.25;1.25;;;;;;;;5074342;28;62132;-87
2023/01/12 03:04:08;;;;;;;;;2.00;1.00;;;;;;;;5066274;28;61683;-88
2023/01/12 03:06:37;;;;;;;;;1.00;1.00;;;;;;;;5085118;28;61919;-88
2023/01/12 03:09:02;;;;;;;;;1.00;1.00;;;;;;;;5059323;28;63823;-87
2023/01/12 03:11:27;;;;;;;;;6.50;0.00;;;;;;;;5045446;28;61683;-88
2023/01/12 03:13:57;;;;;;;;;2.00;1.00;;;;;;;;5046105;28;61986;-87
2023/01/12 03:16:27;;;;;;;;;3.00;2.75;;;;;;;;5045982;28;61777;-86
2023/01/12 03:19:13;;;;;;;;;5.00;0.75;;;;;;;;5045086;28;65047;-87
2023/01/12 03:21:39;;;;;;;;;3.75;2.00;;;;;;;;5063716;28;61855;-87
2023/01/12 03:24:08;;;;;;;;;2.00;0.25;;;;;;;;5045680;28;61857;-88
2023/01/12 03:26:35;;;;;;;;;2.25;1.00;;;;;;;;5064107;28;62094;-87
2023/01/12 03:29:11;;;;;;;;;1.50;1.25;;;;;;;;5063419;28;61622;-88
2023/01/12 03:31:37;;;;;;;;;1.50;0.00;;;;;;;;5045272;28;62076;-88
2023/01/12 03:34:03;;;;;;;;;2.00;1.00;;;;;;;;5063705;28;61946;-86
2023/01/12 03:36:31;;;;;;;;;0.00;0.00;;;;;;;;5045959;28;61920;-87
2023/01/12 03:39:11;;;;;;;;;3.00;2.00;;;;;;;;5063281;28;63006;-88
2023/01/12 03:41:44;;;;;;;;;3.00;1.00;;;;;;;;5045135;28;61873;-86
2023/01/12 03:44:12;;;;;;;;;6.75;2.75;;;;;;;;5045525;28;61914;-88
2023/01/12 03:46:43;;;;;;;;;2.75;0.00;;;;;;;;5063784;28;61780;-87
2023/01/12 03:49:38;;;;;;;;;1.00;1.00;;;;;;;;5044438;28;65224;-87
2023/01/12 03:52:04;;;;;;;;;1.00;0.75;;;;;;;;5032104;28;61979;-87
2023/01/12 03:54:31;;;;;;;;;0.00;0.00;;;;;;;;5063634;28;61804;-87
2023/01/12 03:56:57;;;;;;;;;1.00;1.00;;;;;;;;5045392;28;61754;-87
2023/01/12 03:59:22;;;;;;;;;1.25;1.00;;;;;;;;5062691;28;63155;-86
2023/01/12 04:01:48;;;;;;;;;1.75;1.00;;;;;;;;5044878;28;61663;-87
2023/01/12 04:04:13;;;;;;;;;0.00;0.00;;;;;;;;5048634;28;61757;-87
2023/01/12 04:06:38;;;;;;;;;4.00;0.25;;;;;;;;5084125;28;61706;-88
2023/01/12 04:09:04;;;;;;;;;1.25;0.50;;;;;;;;5064661;28;63575;-87
2023/01/12 04:14:13;;;;;;;;;1.75;0.75;;;;;;;;5083525;28;61739;-87
2023/01/12 04:16:38;;;;;;;;;6.50;1.25;;;;;;;;5083734;28;62100;-88
2023/01/12 04:19:03;;;;;;;;;3.00;1.50;;;;;;;;5082638;28;63355;-88
2023/01/12 04:24:13;;;;;;;;;0.75;0.00;;;;;;;;5083071;28;61732;-87
2023/01/12 04:26:38;;;;;;;;;1.50;1.50;;;;;;;;5065431;28;62125;-87
2023/01/12 04:29:03;;;;;;;;;1.00;1.00;;;;;;;;5082852;28;63176;-87
2023/01/12 04:31:29;;;;;;;;;2.00;1.00;;;;;;;;5064325;28;61685;-87
2023/01/12 04:33:54;;;;;;;;;1.75;1.25;;;;;;;;5064302;28;61721;-87
2023/01/12 04:36:19;;;;;;;;;1.75;0.00;;;;;;;;5065022;28;62001;-87
2023/01/12 04:38:45;;;;;;;;;6.25;0.50;;;;;;;;5082283;28;62804;-87
2023/01/12 04:41:11;;;;;;;;;0.50;0.00;;;;;;;;5064723;28;61788;-87
2023/01/12 04:43:36;;;;;;;;;2.00;0.00;;;;;;;;5064851;28;61756;-87
2023/01/12 04:46:05;;;;;;;;;2.00;2.00;;;;;;;;5064808;28;62260;-87
2023/01/12 04:48:30;;;;;;;;;2.00;2.00;;;;;;;;5082157;28;63152;-88
2023/01/12 04:50:57;;;;;;;;;3.00;1.00;;;;;;;;5064267;28;61846;-87
2023/01/12 04:53:23;;;;;;;;;2.50;1.00;;;;;;;;5064305;28;61717;-87
2023/01/12 04:55:48;;;;;;;;;3.00;1.00;;;;;;;;5082845;28;62115;-88
2023/01/12 04:58:13;;;;;;;;;8.75;1.00;;;;;;;;5082238;28;62766;-88
2023/01/12 05:00:39;;;;;;;;;2.00;1.00;;;;;;;;5064581;28;61911;-88
2023/01/12 05:03:04;;;;;;;;;2.00;1.00;;;;;;;;5082594;28;61846;-87
2023/01/12 05:05:30;;;;;;;;;5.00;0.00;;;;;;;;5064395;28;61765;-88
2023/01/12 05:10:50;;;;;;;;;1.00;0.00;;;;;;;;5082700;28;61969;-88
2023/01/12 05:13:16;;;;;;;;;8.25;1.00;;;;;;;;5082699;28;62023;-87
2023/01/12 05:15:41;;;;;;;;;2.50;1.00;;;;;;;;5082857;28;62135;-87
2023/01/12 05:18:06;;;;;;;;;2.00;0.25;;;;;;;;5081818;28;62319;-87
2023/01/12 05:20:31;;;;;;;;;2.75;0.50;;;;;;;;5082104;28;62007;-88
2023/01/12 05:22:57;;;;;;;;;3.00;2.00;;;;;;;;5064041;28;61839;-87
2023/01/12 05:25:22;;;;;;;;;0.50;0.50;;;;;;;;5064402;28;61931;-88
2023/01/12 05:27:47;;;;;;;;;1.00;1.00;;;;;;;;5063793;28;64152;-88
2023/01/12 05:30:12;;;;;;;;;2.00;1.00;;;;;;;;5064272;28;62356;-87
2023/01/12 05:32:40;;;;;;;;;3.75;0.75;;;;;;;;5082009;28;61802;-87
2023/01/12 05:35:06;;;;;;;;;3.00;1.00;;;;;;;;5063735;28;61819;-88
2023/01/12 05:37:31;;;;;;;;;3.75;1.50;;;;;;;;5063020;28;63677;-87
2023/01/12 05:39:56;;;;;;;;;1.25;0.50;;;;;;;;5064112;28;61804;-88
2023/01/12 05:45:06;;;;;;;;;0.50;0.50;;;;;;;;5084319;28;61783;-87
2023/01/12 05:47:32;;;;;;;;;2.00;1.25;;;;;;;;5065913;28;64036;-87
2023/01/12 05:49:57;;;;;;;;;1.00;0.25;;;;;;;;5066683;28;61773;-88
2023/01/12 05:52:22;;;;;;;;;0.75;0.75;;;;;;;;5085199;28;61822;-87
2023/01/12 05:54:48;;;;;;;;;3.75;2.00;;;;;;;;5085254;28;61716;-87
2023/01/12 05:57:13;;;;;;;;;0.00;0.00;;;;;;;;5084910;28;61857;-88
2023/01/12 05:59:38;;;;;;;;;2.00;0.00;;;;;;;;5066626;28;61808;-87
2023/01/12 06:02:03;;;;;;;;;3.00;0.00;;;;;;;;5085153;28;62129;-88
2023/01/12 06:04:29;;;;;;;;;1.50;0.50;;;;;;;;5067237;28;62022;-87
2023/01/12 06:06:54;;;;;;;;;2.25;0.00;;;;;;;;5066111;28;63457;-83
2023/01/12 06:09:19;;;;;;;;;1.00;0.00;;;;;;;;5085435;28;61901;-81
2023/01/12 06:14:29;;;;;;;;;1.00;0.00;;;;;;;;5085610;28;61660;-88
2023/01/12 06:16:54;;;;;;;;;0.75;0.00;;;;;;;;5066406;28;63744;-86
2023/01/12 06:19:19;;;;;;;;;1.25;0.25;;;;;;;;5085140;28;61859;-89
2023/01/12 06:21:45;;;;;;;;;2.00;0.00;;;;;;;;5066609;28;62376;-87
2023/01/12 06:24:10;;;;;;;;;1.00;0.00;;;;;;;;5085991;28;61886;-92
2023/01/12 06:26:35;;;;;;;;;1.00;0.00;;;;;;;;5066351;28;63616;-92
2023/01/12 06:29:02;;;;;;;;;1.00;0.00;;;;;;;;5066902;28;62157;-85
2023/01/12 06:31:27;;;;;;;;;3.00;1.00;;;;;;;;5084452;28;61931;-88
2023/01/12 06:33:52;;;;;;;;;0.00;0.00;;;;;;;;5067121;28;62270;-87
2023/01/12 06:36:18;;;;;;;;;1.00;0.00;;;;;;;;5084011;28;61823;-89
2023/01/12 06:38:43;;;;;;;;;4.00;1.00;;;;;;;;5066493;28;61782;-83
2023/01/12 06:43:55;;;;;;;;;0.00;0.00;;;;;;;;5022628;28;62092;-81
2023/01/12 06:46:21;;;;;;;;;1.00;0.00;;;;;;;;5020517;28;61851;-83
2023/01/12 06:48:46;;;;;;;;;0.00;0.00;;;;;;;;5020914;28;61781;-82
2023/01/12 06:51:11;;;;;;;;;0.50;0.00;;;;;;;;5021361;28;61835;-83
2023/01/12 06:53:37;;;;;;;;;1.00;1.00;;;;;;;;5021427;28;62168;-85
2023/01/12 06:56:03;;;;;;;;;2.00;0.75;;;;;;;;5020629;28;61836;-83
2023/01/12 06:58:30;;;;;;;;;2.25;1.75;;;;;;;;5021758;28;61808;-83
2023/01/12 07:01:02;;;;;;;;;4.25;1.00;;;;;;;;5026305;28;61985;-81
2023/01/12 07:03:27;;;;;;;;;1.50;1.50;;;;;;;;5024945;28;61848;-84
2023/01/12 07:05:52;;;;;;;;;1.00;0.00;;;;;;;;5024817;28;61769;-83
2023/01/12 07:08:18;;;;;;;;;0.25;0.25;;;;;;;;5029065;28;62110;-84
2023/01/12 07:10:43;;;;;;;;;0.00;0.00;;;;;;;;5028978;28;61994;-82
2023/01/12 07:13:09;;;;;;;;;0.00;0.00;;;;;;;;5024975;28;61782;-82
2023/01/12 07:15:34;;;;;;;;;3.00;0.00;;;;;;;;5031300;28;64146;-83
2023/01/12 07:17:59;;;;;;;;;1.25;0.75;;;;;;;;5029400;28;61998;-84
2023/01/12 07:20:27;;;;;;;;;1.00;0.00;;;;;;;;5042872;28;62027;-83
2023/01/12 07:22:53;;;;;;;;;0.50;0.00;;;;;;;;5083962;28;61766;-80
2023/01/12 07:25:18;;;;;;;;;0.00;0.00;;;;;;;;5065238;28;64648;-79
2023/01/12 07:27:48;;;;;;;;;1.00;1.00;;;;;;;;5084091;28;61914;-82
2023/01/12 07:30:13;;;;;;;;;2.00;0.75;;;;;;;;5084243;28;62007;-82
2023/01/12 07:32:38;;;;;;;;;3.25;1.00;;;;;;;;5083400;28;62005;-77
2023/01/12 07:35:04;;;;;;;;;2.75;0.75;;;;;;;;5065313;28;63588;-78
2023/01/12 07:37:29;;;;;;;;;1.50;0.00;;;;;;;;5082677;28;62441;-81
2023/01/12 07:39:54;;;;;;;;;0.00;0.00;;;;;;;;5081732;28;61802;-80
2023/01/12 07:42:22;;;;;;;;;1.50;0.00;;;;;;;;5065183;28;62046;-78
2023/01/12 07:44:48;;;;;;;;;0.00;0.00;;;;;;;;5082265;28;62025;-83
2023/01/12 07:47:13;;;;;;;;;0.50;0.25;;;;;;;;5081195;28;61821;-84
2023/01/12 07:49:38;;;;;;;;;2.50;0.00;;;;;;;;5082781;28;61921;-88
2023/01/12 07:52:04;;;;;;;;;0.00;0.00;;;;;;;;5082536;28;61770;-79
2023/01/12 07:54:29;;;;;;;;;0.50;0.00;;;;;;;;5081595;28;62015;-83
2023/01/12 07:56:54;;;;;;;;;0.50;0.50;;;;;;;;5063988;28;62149;-85
2023/01/12 07:59:20;;;;;;;;;0.00;0.00;;;;;;;;5064568;28;61901;-84
2023/01/12 08:01:45;;;;;;;;;1.00;1.00;;;;;;;;5082281;28;61907;-84
2023/01/12 08:04:10;;;;;;;;;0.75;0.00;;;;;;;;5081093;28;63473;-84
2023/01/12 08:06:36;;;;;;;;;2.00;0.00;;;;;;;;5082307;28;61944;-84
2023/01/12 08:09:02;;;;;;;;;0.75;0.00;;;;;;;;5079682;28;62002;-84
2023/01/12 08:11:27;;;;;;;;;0.00;0.00;;;;;;;;5082647;28;62395;-84
2023/01/12 08:13:54;;;;;;;;;0.00;0.00;;;;;;;;5080917;28;61719;-84
2023/01/12 08:16:21;;;;;;;;;1.25;0.00;;;;;;;;5064149;28;61994;-84
2023/01/12 08:18:51;;;;;;;;;0.50;0.00;;;;;;;;5081832;28;61997;-84
2023/01/12 08:21:18;;;;;;;;;0.00;0.00;;;;;;;;5080367;28;61906;-84
2023/01/12 08:23:46;;;;;;;;;0.00;0.00;;;;;;;;5063966;28;63651;-84
2023/01/12 08:26:17;;;;;;;;;0.50;0.50;;;;;;;;5064284;28;61805;-84
2023/01/12 08:28:48;;;;;;;;;0.00;0.00;;;;;;;;5064905;28;61961;-84
2023/01/12 08:31:14;;;;;;;;;0.25;0.25;;;;;;;;5064564;28;61826;-84
2023/01/12 08:33:40;;;;;;;;;1.00;1.00;;;;;;;;5081935;28;63138;-83
2023/01/12 08:36:07;;;;;;;;;4.00;0.00;;;;;;;;5062381;28;61649;-85
2023/01/12 08:38:33;;;;;;;;;0.00;0.00;;;;;;;;5076047;28;61912;-85
2023/01/12 08:44:01;;;;;;;;;0.00;0.00;;;;;;;;5079226;28;61893;-84
2023/01/12 08:46:36;;;;;;;;;0.00;0.00;;;;;;;;5079596;28;61920;-84
2023/01/12 08:49:03;;;;;;;;;0.50;0.00;;;;;;;;5079152;28;61889;-86
2023/01/12 08:51:28;;;;;;;;;1.00;1.00;;;;;;;;5064957;28;62080;-89
2023/01/12 08:53:54;;;;;;;;;0.00;0.00;;;;;;;;5063535;28;63999;-86
2023/01/12 08:56:19;;;;;;;;;0.00;0.00;;;;;;;;5064583;28;62098;-86
2023/01/12 08:58:45;;;;;;;;;0.00;0.00;;;;;;;;5081541;28;61957;-87
2023/01/12 09:01:12;;;;;;;;;0.00;0.00;;;;;;;;5082382;28;61672;-87
2023/01/12 09:03:38;;;;;;;;;0.50;0.00;;;;;;;;5063456;28;65017;-88
2023/01/12 09:06:10;;;;;;;;;0.00;0.00;;;;;;;;5063810;28;61737;-87
2023/01/12 09:08:36;;;;;;;;;0.00;0.00;;;;;;;;5082903;28;61708;-87
2023/01/12 09:11:02;;;;;;;;;0.00;0.00;;;;;;;;5082609;28;61857;-87
2023/01/12 09:13:27;;;;;;;;;1.00;1.00;;;;;;;;5064101;28;64061;-87
2023/01/12 09:15:52;;;;;;;;;0.00;0.00;;;;;;;;5063825;28;62251;-87
2023/01/12 09:18:18;;;;;;;;;0.00;0.00;;;;;;;;5082942;28;61873;-87
2023/01/12 09:20:43;;;;;;;;;0.00;0.00;;;;;;;;5085841;28;61793;-87
2023/01/12 09:23:08;;;;;;;;;3.00;0.00;;;;;;;;5067128;28;63949;-87
2023/01/12 09:25:34;;;;;;;;;0.00;0.00;;;;;;;;5067766;28;61863;-88
2023/01/12 09:27:59;;;;;;;;;1.75;0.00;;;;;;;;5067624;28;62084;-87
2023/01/12 09:30:24;;;;;;;;;1.00;1.00;;;;;;;;5085942;28;61998;-87
2023/01/12 09:32:49;;;;;;;;;1.50;1.00;;;;;;;;5066773;28;63708;-87
2023/01/12 09:35:18;;;;;;;;;5.75;0.00;;;;;;;;5085853;28;61925;-87
2023/01/12 09:37:45;;;;;;;;;1.00;1.00;;;;;;;;5067599;28;61829;-88
2023/01/12 09:40:13;;;;;;;;;3.00;1.00;;;;;;;;5067284;28;61887;-87
2023/01/12 09:48:11;;;;;;;;;4.25;0.00;;;;;;;;5085626;28;61632;-88
2023/01/12 09:50:39;;;;;;;;;0.00;0.00;;;;;;;;5067036;28;62119;-87
2023/01/12 09:53:15;;;;;;;;;1.00;0.00;;;;;;;;5084843;28;61860;-88
2023/01/12 09:55:46;;;;;;;;;0.00;0.00;;;;;;;;5067109;28;61819;-87
2023/01/12 09:58:30;;;;;;;;;0.50;0.00;;;;;;;;5066633;28;61776;-87
2023/01/12 10:00:57;;;;;;;;;0.00;0.00;;;;;;;;5067032;28;61741;-87
2023/01/12 10:03:25;;;;;;;;;2.25;1.00;;;;;;;;5084462;28;62148;-87
2023/01/12 10:05:51;;;;;;;;;1.00;1.00;;;;;;;;5066685;28;62003;-88
2023/01/12 10:08:37;;;;;;;;;1.00;0.00;;;;;;;;5085185;28;62059;-87
2023/01/12 10:11:21;;;;;;;;;0.00;0.00;;;;;;;;5066635;28;62021;-87
2023/01/12 10:14:05;;;;;;;;;0.25;0.00;;;;;;;;5065946;28;63743;-87
2023/01/12 10:16:36;;;;;;;;;1.00;1.00;;;;;;;;5066915;28;61789;-87
2023/01/12 10:19:09;;;;;;;;;0.00;0.00;;;;;;;;5066526;28;61968;-87
2023/01/12 10:21:35;;;;;;;;;0.00;0.00;;;;;;;;5066965;28;62058;-87
2023/01/12 10:24:00;;;;;;;;;0.00;0.00;;;;;;;;5084995;28;62867;-88
2023/01/12 10:26:31;;;;;;;;;2.25;0.00;;;;;;;;5066577;28;61813;-87
2023/01/12 10:28:58;;;;;;;;;0.00;0.00;;;;;;;;5085606;28;61865;-87
2023/01/12 10:31:24;;;;;;;;;0.00;0.00;;;;;;;;5084381;28;61794;-87
2023/01/12 10:34:01;;;;;;;;;2.00;0.25;;;;;;;;5084115;28;61905;-87
2023/01/12 10:36:28;;;;;;;;;0.50;0.50;;;;;;;;5066469;28;62039;-87
2023/01/12 10:38:56;;;;;;;;;3.00;0.00;;;;;;;;5085089;28;61841;-87
2023/01/12 10:41:22;;;;;;;;;0.00;0.00;;;;;;;;5065991;28;61815;-87
2023/01/12 10:43:57;;;;;;;;;0.00;0.00;;;;;;;;5066187;28;64798;-87
2023/01/12 10:46:25;;;;;;;;;1.00;1.00;;;;;;;;5066178;28;62005;-88
2023/01/12 10:48:51;;;;;;;;;0.00;0.00;;;;;;;;5065737;28;61836;-88
2023/01/12 10:51:25;;;;;;;;;0.75;0.00;;;;;;;;5084656;28;61800;-87
2023/01/12 10:53:57;;;;;;;;;0.25;0.25;;;;;;;;5084398;28;62970;-87
2023/01/12 10:56:25;;;;;;;;;0.00;0.00;;;;;;;;5083795;28;61818;-87
2023/01/12 10:59:02;;;;;;;;;1.25;0.50;;;;;;;;5066411;28;62001;-87
2023/01/12 11:01:46;;;;;;;;;0.00;0.00;;;;;;;;5084312;28;61906;-87
2023/01/12 11:04:18;;;;;;;;;2.75;0.00;;;;;;;;5083653;28;62992;-87
2023/01/12 11:06:45;;;;;;;;;2.50;0.50;;;;;;;;5084572;28;61741;-87
2023/01/12 11:09:24;;;;;;;;;2.00;2.00;;;;;;;;5066379;28;61732;-87
2023/01/12 11:11:53;;;;;;;;;9.50;4.00;;;;;;;;5065892;28;61831;-86
2023/01/12 11:14:22;;;;;;;;;2.50;1.00;;;;;;;;5083464;28;63128;-87
2023/01/12 11:16:51;;;;;;;;;2.75;1.00;;;;;;;;5065582;28;61971;-86
2023/01/12 11:19:37;;;;;;;;;3.00;1.00;;;;;;;;5083801;28;61693;-87
2023/01/12 11:22:11;;;;;;;;;1.00;1.00;;;;;;;;5084667;28;61894;-87
2023/01/12 11:24:42;;;;;;;;;0.75;0.75;;;;;;;;5064950;28;63887;-86
2023/01/12 11:27:08;;;;;;;;;0.50;0.50;;;;;;;;5084179;28;61907;-87
2023/01/12 11:29:47;;;;;;;;;0.75;0.75;;;;;;;;5065686;28;62101;-87
2023/01/12 11:32:15;;;;;;;;;0.00;0.00;;;;;;;;5065798;28;61791;-86
2023/01/12 11:34:50;;;;;;;;;0.75;0.50;;;;;;;;5065186;28;63767;-87
2023/01/12 11:37:17;;;;;;;;;0.50;0.50;;;;;;;;5065805;28;61970;-85
2023/01/12 11:39:44;;;;;;;;;2.75;1.00;;;;;;;;5065014;28;61745;-87
2023/01/12 11:45:20;;;;;;;;;0.25;0.00;;;;;;;;5000632;28;62142;-87
2023/01/12 11:47:49;;;;;;;;;4.25;0.50;;;;;;;;4984119;28;61866;-87
2023/01/12 11:50:17;;;;;;;;;3.25;1.25;;;;;;;;5000263;28;61951;-87
2023/01/12 11:52:42;;;;;;;;;1.00;0.00;;;;;;;;4984833;28;61908;-87
2023/01/12 11:55:15;;;;;;;;;2.00;2.00;;;;;;;;4999960;28;62019;-86
2023/01/12 11:57:41;;;;;;;;;1.75;0.75;;;;;;;;5000979;28;61715;-86
2023/01/12 12:00:18;;;;;;;;;2.00;0.75;;;;;;;;4984247;28;62372;-86
2023/01/12 12:02:58;;;;;;;;;3.75;0.75;;;;;;;;5000590;28;62391;-87
2023/01/12 12:05:26;;;;;;;;;0.50;0.00;;;;;;;;5000212;28;61822;-87
2023/01/12 12:07:54;;;;;;;;;2.00;0.50;;;;;;;;4983633;28;61977;-86
2023/01/12 12:10:26;;;;;;;;;4.50;2.00;;;;;;;;4984430;28;62601;-84
2023/01/12 12:13:17;;;;;;;;;1.00;0.00;;;;;;;;4986238;28;61817;-85
2023/01/12 12:15:58;;;;;;;;;1.00;1.00;;;;;;;;4980283;28;63669;-85
2023/01/12 12:18:23;;;;;;;;;0.00;0.00;;;;;;;;4983627;28;62111;-85
2023/01/12 12:21:03;;;;;;;;;0.00;0.00;;;;;;;;4999841;28;61809;-89
2023/01/12 12:23:41;;;;;;;;;1.00;0.00;;;;;;;;5082936;28;61947;-84
2023/01/12 12:26:18;;;;;;;;;0.00;0.00;;;;;;;;5082759;28;61889;-84
2023/01/12 12:28:53;;;;;;;;;1.75;1.00;;;;;;;;5064652;28;61709;-85
2023/01/12 12:31:22;;;;;;;;;2.50;1.00;;;;;;;;5064669;28;62037;-85
2023/01/12 12:33:55;;;;;;;;;1.00;1.00;;;;;;;;5064702;28;61862;-85
2023/01/12 12:36:25;;;;;;;;;0.00;0.00;;;;;;;;5082338;28;61874;-85
2023/01/12 12:38:50;;;;;;;;;3.00;0.00;;;;;;;;5064177;28;61824;-85
2023/01/12 12:47:32;;;;;;;;;0.00;0.00;;;;;;;;5082352;28;62282;-86
2023/01/12 12:49:59;;;;;;;;;2.50;1.00;;;;;;;;5064131;28;61847;-86
2023/01/12 12:52:28;;;;;;;;;0.00;0.00;;;;;;;;5082283;28;61854;-87
2023/01/12 12:54:56;;;;;;;;;0.25;0.00;;;;;;;;5063791;28;61764;-86
2023/01/12 12:57:21;;;;;;;;;1.00;1.00;;;;;;;;5064282;28;63729;-87
2023/01/12 12:59:51;;;;;;;;;1.00;0.00;;;;;;;;5082581;28;62026;-87
2023/01/12 13:02:30;;;;;;;;;1.00;1.00;;;;;;;;5064311;28;62027;-86
2023/01/12 13:04:56;;;;;;;;;1.00;1.00;;;;;;;;5064490;28;61836;-86
2023/01/12 13:07:22;;;;;;;;;1.50;1.00;;;;;;;;5081748;28;62790;-87
2023/01/12 13:09:47;;;;;;;;;0.00;0.00;;;;;;;;5082271;28;61831;-86
2023/01/12 13:12:21;;;;;;;;;1.25;1.00;;;;;;;;5064497;28;61906;-87
2023/01/12 13:15:05;;;;;;;;;3.00;0.00;;;;;;;;5064289;28;61835;-87
2023/01/12 13:17:30;;;;;;;;;1.50;0.25;;;;;;;;5081405;28;63013;-87
2023/01/12 13:19:58;;;;;;;;;0.00;0.00;;;;;;;;5063601;28;61773;-86
2023/01/12 13:22:24;;;;;;;;;4.00;0.00;;;;;;;;5063839;28;61716;-86
2023/01/12 13:24:49;;;;;;;;;2.00;0.50;;;;;;;;5082549;28;62151;-86
2023/01/12 13:27:33;;;;;;;;;1.00;0.75;;;;;;;;5081867;28;63187;-86
2023/01/12 13:30:16;;;;;;;;;2.00;0.75;;;;;;;;5082469;28;61926;-85
2023/01/12 13:32:48;;;;;;;;;0.75;0.75;;;;;;;;5063787;28;61891;-87
2023/01/12 13:35:25;;;;;;;;;1.50;0.50;;;;;;;;5063670;28;61783;-86
2023/01/12 13:37:56;;;;;;;;;1.75;1.00;;;;;;;;5063342;28;65097;-87
2023/01/12 13:40:27;;;;;;;;;1.00;1.00;;;;;;;;5062985;28;61874;-86
2023/01/12 13:45:38;;;;;;;;;1.75;1.75;;;;;;;;5080534;28;62669;-86
2023/01/12 13:48:05;;;;;;;;;2.25;1.00;;;;;;;;5060791;28;63249;-85
2023/01/12 13:50:33;;;;;;;;;2.00;0.50;;;;;;;;5061132;28;61887;-85
2023/01/12 13:53:02;;;;;;;;;2.00;2.00;;;;;;;;5061610;28;62049;-86
2023/01/12 13:55:29;;;;;;;;;2.00;0.00;;;;;;;;5061707;28;62238;-85
2023/01/12 13:58:03;;;;;;;;;0.00;0.00;;;;;;;;5058700;28;63921;-86
2023/01/12 14:00:31;;;;;;;;;0.75;0.75;;;;;;;;5061719;28;61756;-85
2023/01/12 14:02:57;;;;;;;;;0.75;0.75;;;;;;;;5061322;28;61787;-86
2023/01/12 14:05:46;;;;;;;;;0.75;0.75;;;;;;;;5080339;28;61791;-86
2023/01/12 14:08:32;;;;;;;;;0.00;0.00;;;;;;;;5059096;28;64020;-86
2023/01/12 14:11:18;;;;;;;;;2.25;1.00;;;;;;;;5063866;28;61840;-86
2023/01/12 14:17:47;;;;;;;;;0.00;0.00;;;;;;;;5081009;28;61911;-85
2023/01/12 14:19:29;;;;;;;;;0.00;0.00;;;;;;;;5080948;28;62199;-86
2023/01/12 14:21:56;;;;;;;;;0.00;0.00;;;;;;;;5082981;28;61914;-85
2023/01/12 14:24:23;;;;;;;;;2.25;1.75;;;;;;;;5061711;28;63082;-85
2023/01/12 14:26:49;;;;;;;;;1.25;0.25;;;;;;;;5064717;28;61684;-86
2023/01/12 14:29:14;;;;;;;;;0.50;0.50;;;;;;;;5064092;28;64704;-85
2023/01/12 14:31:47;;;;;;;;;3.50;1.00;;;;;;;;5064520;28;61848;-85
2023/01/12 14:34:18;;;;;;;;;2.00;1.00;;;;;;;;5063755;28;61875;-87
2023/01/12 14:36:44;;;;;;;;;2.50;1.00;;;;;;;;5064712;28;62100;-86
2023/01/12 14:39:15;;;;;;;;;1.00;1.00;;;;;;;;5080447;28;61901;-93
2023/01/12 14:47:24;;;;;;;;;0.75;0.75;;;;;;;;5084388;28;61954;-86
2023/01/12 14:49:50;;;;;;;;;1.25;0.50;;;;;;;;5083544;28;61967;-85
2023/01/12 14:52:15;;;;;;;;;2.00;0.50;;;;;;;;5066249;28;61863;-85
2023/01/12 14:54:40;;;;;;;;;1.25;1.00;;;;;;;;5066485;28;61891;-85
2023/01/12 14:57:07;;;;;;;;;2.25;1.75;;;;;;;;5084457;28;61892;-87
2023/01/12 14:59:33;;;;;;;;;4.00;1.00;;;;;;;;5084309;28;63159;-84
2023/01/12 15:02:14;;;;;;;;;1.50;0.00;;;;;;;;5083306;28;61792;-85
2023/01/12 15:04:48;;;;;;;;;1.00;1.00;;;;;;;;5087778;27;61913;-85
2023/01/12 15:07:16;;;;;;;;;0.50;0.50;;;;;;;;5093957;27;62070;-85
2023/01/12 15:09:53;;;;;;;;;0.00;0.00;;;;;;;;5091842;27;61828;-85
2023/01/12 15:12:38;;;;;;;;;0.00;0.00;;;;;;;;5072755;27;62606;-85
2023/01/12 15:15:20;;;;;;;;;0.00;0.00;;;;;;;;5090961;27;62192;-85
2023/01/12 15:26:09;;;;;;;;;0.75;0.00;;;;;;;;5080269;28;61768;-85
2023/01/12 15:28:34;;;;;;;;;1.00;1.00;;;;;;;;5063922;28;62094;-84
2023/01/12 15:30:59;;;;;;;;;2.50;1.50;;;;;;;;5061628;28;63428;-85
2023/01/12 15:33:25;;;;;;;;;3.00;1.00;;;;;;;;5063188;28;62030;-85
2023/01/12 15:35:50;;;;;;;;;1.00;0.00;;;;;;;;5064172;27;61823;-85
2023/01/12 15:38:16;;;;;;;;;0.00;0.00;;;;;;;;5066270;28;62115;-87
2023/01/12 15:40:42;;;;;;;;;3.00;1.25;;;;;;;;5065121;28;64109;-85
2023/01/12 15:43:11;;;;;;;;;0.75;0.75;;;;;;;;5065995;27;61853;-85
2023/01/12 15:45:38;;;;;;;;;3.75;1.00;;;;;;;;5072304;27;61962;-85
2023/01/12 15:48:04;;;;;;;;;0.00;0.00;;;;;;;;5065005;28;62315;-87
2023/01/12 15:50:30;;;;;;;;;0.00;0.00;;;;;;;;5058926;28;63953;-86
2023/01/12 15:52:58;;;;;;;;;1.00;1.00;;;;;;;;5080083;28;61848;-86
2023/01/12 15:55:23;;;;;;;;;1.25;1.00;;;;;;;;5082357;28;61989;-88